Details From ROAH - Naha
To RJOA - Hiroshima
Flight Number -
Tags Generated
Created
Modified
Stats Distance 564 nm / 1,045 km
Max Altitude 0 ft / 0 m
Waypoints 4
Social Downloads 1
Likes 0
Share VATSIM

Download

Looking for another format? Having issues loading an existing format? Contact us
Advertisement - Login to hide

Notes

Generated

Route

ROAH BOMAP KRETA RJOA

ID Type Via Altitude Latitude Longitude Leg Dist Tot Dist Heading (true) Name
O ROAH APT - 0 ft / 0 m 26.20934˚ 127.64523˚ - 0 nm - -
BOMAP FIX - 0 ft / 0 m 30.00366˚ 129.82446˚ 255 nm 255 nm 26° / 27° -
KRETA FIX - 0 ft / 0 m 34.14411˚ 132.61831˚ 286 nm 541 nm 29° / 31° -
O RJOA APT - 0 ft / 0 m 34.43603˚ 132.90312˚ 22 nm 564 nm 39° / 39° -

Altitude Profile

Advertisement - Login to hide

Weather


0- 5 10 15 20 25 30 35+ Temperature / ° C

Clouds and Precipitation
Forecast for 2017-12-16 18:00 UTC. Updated an hour ago

Ground ~20,000 ft ~40,000 ft Winds

ROAH

Details ICAO ROAH (OKA)
Name NAHA
Region Japan
Timezone Asia/Tokyo (UTC+9.0)
Stats Elevation 12 ft / 4 m (AMSL)
Location 26.195815° 127.645868°
Runways 1
Magnetic Variation 5.230° W

METAR

ROAH 161830Z 01024KT 9999 FEW025 BKN030 16/09 Q1023

Decode

TAF

TAF ROAH 161707Z 1618/1800 01024KT 9999 FEW025 BKN045 TEMPO 1618/1621 01026G36KT BECMG 1709/1712 04011KT

Decode

Departure Runways

ID Width Length Bearing (true) Bearing (mag) Surface Threshold Offset Overrun Length
18 150 ft / 46 m 9,881 ft / 3,012 m 177.59° 182.82° Asphalt 138 ft / 42 m 640 ft / 195 m
36 150 ft / 46 m 9,881 ft / 3,012 m 357.59° 2.82° Asphalt 0 ft / 0 m 509 ft / 155 m

RJOA

Details ICAO RJOA (HIJ)
Name HIROSHIMA
Region Japan
Timezone Asia/Tokyo (UTC+9.0)
Stats Elevation 1,088 ft / 332 m (AMSL)
Location 34.436025° 132.919444°
Runways 1
Magnetic Variation 7.697° W

METAR

Not found

TAF

TAF RJOA 161707Z 1618/1800 30009KT 8000 -SHSN FEW008 SCT015 BKN030 TEMPO 1618/1700 3000 -SHSN

Decode

Destination Runways

ID Width Length Bearing (true) Bearing (mag) Surface Threshold Offset Overrun Length
10 200 ft / 61 m 9,823 ft / 2,994 m 89.99° 97.69° Asphalt 0 ft / 0 m 210 ft / 64 m
28 200 ft / 61 m 9,823 ft / 2,994 m 270.01° 277.71° Asphalt 0 ft / 0 m 210 ft / 64 m

Approach Navaids

Runway Type Ident Frequency Range Bearing (true) Bearing (mag) Slope Elevation
10 Localiser IHG 108.70 MHz 18 nm / 33 km 90.00° 97.70° - 1,094 ft / 333 m (AMSL)
10 Glidescope IHG 108.70 MHz 10 nm / 19 km 90.00° 97.70° 3.00° 1,094 ft / 333 m (AMSL)
10 DME IHG 108.70 MHz 18 nm / 33 km - - - 1,094 ft / 333 m (AMSL)

Popular Alternatives